createdAt,value
2022-08-19T00:01:29.173Z,20.91
2022-08-19T00:04:37.438Z,21.25
2022-08-19T00:07:40.551Z,21.03
2022-08-19T00:10:43.426Z,21.02
2022-08-19T00:13:46.730Z,21.11
2022-08-19T00:16:50.212Z,20.99
2022-08-19T00:19:54.468Z,20.78
2022-08-19T00:22:57.320Z,20.86
2022-08-19T00:26:07.245Z,20.41
2022-08-19T00:29:32.072Z,20.79
2022-08-19T00:32:35.963Z,20.89
2022-08-19T00:35:40.364Z,20.76
2022-08-19T00:38:44.024Z,20.67
2022-08-19T00:41:49.874Z,20.61
2022-08-19T00:44:53.884Z,20.69
2022-08-19T00:47:56.618Z,20.73
2022-08-19T00:51:01.628Z,20.84
2022-08-19T00:54:05.025Z,20.55
2022-08-19T00:57:10.055Z,20.56
2022-08-19T01:00:14.946Z,20.44
2022-08-19T01:03:19.406Z,20.61
2022-08-19T01:06:23.949Z,20.57
2022-08-19T01:09:26.844Z,20.65
2022-08-19T01:12:29.871Z,20.46
2022-08-19T01:15:35.011Z,20.51
2022-08-19T01:18:40.147Z,20.39
2022-08-19T01:21:47.871Z,20.16
2022-08-19T01:24:52.522Z,20.33
2022-08-19T01:27:55.367Z,20.61
2022-08-19T01:31:07.868Z,20.29
2022-08-19T01:34:11.462Z,20.19
2022-08-19T01:37:15.034Z,20.17
2022-08-19T01:40:32.474Z,19.91
2022-08-19T01:43:35.625Z,20.04
2022-08-19T01:46:38.657Z,20.34
2022-08-19T01:49:41.407Z,20.33
2022-08-19T01:52:45.081Z,20.27
2022-08-19T01:55:49.672Z,20.40
2022-08-19T01:58:55.516Z,20.21
2022-08-19T02:01:58.452Z,20.35
2022-08-19T02:05:01.333Z,20.36
2022-08-19T02:08:04.419Z,20.22
2022-08-19T02:11:08.954Z,20.47
2022-08-19T02:14:11.753Z,19.89
2022-08-19T02:17:14.595Z,19.93
2022-08-19T02:20:18.186Z,20.30
2022-08-19T02:23:21.044Z,20.03
2022-08-19T02:26:26.640Z,19.90
2022-08-19T02:29:29.487Z,19.90
2022-08-19T02:32:33.422Z,19.92
2022-08-19T02:35:37.295Z,19.86
2022-08-19T02:38:40.764Z,20.16
2022-08-19T02:41:44.933Z,20.57
2022-08-19T02:44:47.799Z,20.22
2022-08-19T02:47:50.564Z,20.02
2022-08-19T02:50:56.487Z,20.07
2022-08-19T02:53:59.946Z,20.45
2022-08-19T02:57:04.202Z,19.99
2022-08-19T03:00:07.721Z,20.03
2022-08-19T03:03:10.535Z,20.09
2022-08-19T03:06:15.306Z,20.27
2022-08-19T03:09:18.766Z,20.33
2022-08-19T03:12:22.938Z,20.38
2022-08-19T03:15:25.855Z,20.25
2022-08-19T03:18:28.657Z,20.19
2022-08-19T03:21:33.481Z,20.38
2022-08-19T03:24:36.311Z,19.95
2022-08-19T03:27:40.548Z,20.20
2022-08-19T03:30:44.766Z,20.23
2022-08-19T03:33:47.651Z,20.10
2022-08-19T03:36:53.891Z,20.22
2022-08-19T03:39:56.764Z,20.62
2022-08-19T03:43:01.126Z,20.47
2022-08-19T03:46:05.603Z,20.39
2022-08-19T03:49:09.521Z,20.30
2022-08-19T03:52:12.343Z,20.53
2022-08-19T03:55:15.279Z,20.64
2022-08-19T03:58:19.495Z,20.49
2022-08-19T04:01:30.713Z,20.60
2022-08-19T04:04:38.790Z,20.63
2022-08-19T04:07:41.733Z,20.73
2022-08-19T04:10:44.515Z,20.66
2022-08-19T04:13:48.708Z,21.44
2022-08-19T04:16:51.658Z,21.40
2022-08-19T04:19:54.550Z,20.99
2022-08-19T04:22:58.674Z,21.13
2022-08-19T04:26:01.610Z,21.61
2022-08-19T04:29:12.376Z,21.19
2022-08-19T04:32:16.374Z,21.33
2022-08-19T04:35:22.050Z,21.17
2022-08-19T04:38:27.383Z,21.36
2022-08-19T04:41:47.583Z,21.66
2022-08-19T04:44:51.858Z,21.29
2022-08-19T04:47:58.729Z,21.32
2022-08-19T04:51:21.731Z,21.29
2022-08-19T04:54:37.541Z,22.04
2022-08-19T04:57:42.278Z,21.80
2022-08-19T05:00:46.597Z,21.76
2022-08-19T05:03:49.454Z,22.02
2022-08-19T05:06:54.383Z,22.15
2022-08-19T05:10:03.239Z,22.31
2022-08-19T05:13:06.362Z,22.33
2022-08-19T05:16:11.519Z,21.99
2022-08-19T05:19:31.852Z,22.72
2022-08-19T05:22:41.010Z,22.28
2022-08-19T05:25:44.366Z,22.50
2022-08-19T05:28:47.278Z,22.91
2022-08-19T05:31:52.106Z,22.93
2022-08-19T05:34:54.838Z,22.41
2022-08-19T05:37:58.937Z,22.65
2022-08-19T05:41:01.970Z,23.19
2022-08-19T05:44:07.553Z,22.78
2022-08-19T05:47:12.539Z,22.70
2022-08-19T05:50:15.485Z,22.63
2022-08-19T05:53:18.453Z,22.71
2022-08-19T05:56:21.647Z,23.08
2022-08-19T05:59:24.903Z,22.79
2022-08-19T06:02:29.843Z,23.60
2022-08-19T06:05:49.435Z,23.26
2022-08-19T06:08:54.731Z,23.38
2022-08-19T06:12:00.176Z,23.24
2022-08-19T06:15:04.499Z,23.29
2022-08-19T06:18:08.711Z,23.19
2022-08-19T06:21:11.518Z,23.65
2022-08-19T06:24:15.761Z,23.36
2022-08-19T06:27:18.659Z,23.93
2022-08-19T06:30:21.558Z,23.86
2022-08-19T06:33:25.751Z,23.72
2022-08-19T06:36:32.348Z,23.57
2022-08-19T06:39:39.327Z,24.20
2022-08-19T06:42:44.837Z,24.12
2022-08-19T06:45:58.011Z,24.37
2022-08-19T06:49:03.299Z,24.31
2022-08-19T06:52:06.735Z,24.38
2022-08-19T06:55:09.947Z,24.43
2022-08-19T06:58:13.096Z,24.58
2022-08-19T07:01:16.332Z,24.56
2022-08-19T07:04:22.052Z,25.23
2022-08-19T07:07:24.877Z,25.04
2022-08-19T07:10:27.826Z,25.26
2022-08-19T07:13:30.790Z,24.97
2022-08-19T07:16:33.615Z,25.34
2022-08-19T07:19:40.493Z,25.54
2022-08-19T07:22:43.662Z,25.33
2022-08-19T07:25:53.095Z,25.50
2022-08-19T07:28:56.609Z,25.65
2022-08-19T07:32:06.811Z,25.61
2022-08-19T07:35:15.909Z,25.78
2022-08-19T07:38:19.266Z,25.92
2022-08-19T07:41:23.696Z,26.10
2022-08-19T07:44:26.591Z,26.16
2022-08-19T07:47:48.288Z,26.29
2022-08-19T07:50:55.702Z,26.33
2022-08-19T07:53:59.015Z,26.52
2022-08-19T07:57:03.015Z,26.07
2022-08-19T08:00:08.113Z,26.22
2022-08-19T08:03:12.456Z,26.22
2022-08-19T08:06:35.176Z,25.99
2022-08-19T08:09:39.548Z,26.21
2022-08-19T08:12:42.861Z,26.12
2022-08-19T08:16:06.450Z,26.40
2022-08-19T08:19:18.211Z,26.73
2022-08-19T08:22:50.133Z,26.91
2022-08-19T08:25:53.655Z,26.89
2022-08-19T08:28:57.313Z,27.51
2022-08-19T08:32:00.343Z,27.42
2022-08-19T08:35:03.217Z,27.65
2022-08-19T08:38:07.580Z,27.30
2022-08-19T08:41:20.315Z,27.76
2022-08-19T08:44:25.506Z,27.47
2022-08-19T08:47:30.740Z,27.29
2022-08-19T08:50:37.616Z,27.80
2022-08-19T08:53:43.384Z,27.98
2022-08-19T08:56:47.735Z,27.90
2022-08-19T08:59:52.902Z,27.78
2022-08-19T09:02:56.355Z,27.74
2022-08-19T09:06:02.396Z,28.10
2022-08-19T09:09:11.862Z,29.50
2022-08-19T09:12:30.788Z,31.55
2022-08-19T09:15:36.734Z,29.04
2022-08-19T09:18:45.072Z,28.42
2022-08-19T09:21:47.999Z,30.88
2022-08-19T09:24:53.460Z,28.86
2022-08-19T09:28:03.077Z,29.61
2022-08-19T09:31:08.634Z,33.72
2022-08-19T09:34:21.423Z,34.45
2022-08-19T09:37:25.304Z,34.98
2022-08-19T09:40:29.955Z,35.54
2022-08-19T09:43:44.116Z,35.57
2022-08-19T09:46:48.474Z,36.22
2022-08-19T09:49:51.667Z,33.11
2022-08-19T09:52:58.080Z,35.76
2022-08-19T09:56:04.048Z,35.19
2022-08-19T09:59:07.300Z,35.97
2022-08-19T10:02:11.377Z,34.56
2022-08-19T10:05:31.633Z,36.36
2022-08-19T10:08:36.422Z,36.60
2022-08-19T10:11:53.773Z,35.35
2022-08-19T10:14:57.541Z,36.45
2022-08-19T10:18:00.922Z,36.20
2022-08-19T10:21:06.379Z,35.81
2022-08-19T10:24:09.648Z,37.44
2022-08-19T10:27:17.362Z,35.80
2022-08-19T10:30:20.354Z,37.25
2022-08-19T10:33:38.420Z,36.83
2022-08-19T10:36:56.046Z,36.94
2022-08-19T10:39:59.932Z,36.04
2022-08-19T10:43:04.472Z,37.21
2022-08-19T10:46:09.666Z,37.19
2022-08-19T10:49:20.130Z,37.75
2022-08-19T10:52:39.117Z,37.28
2022-08-19T10:55:59.673Z,37.63
2022-08-19T10:59:04.746Z,37.02
2022-08-19T11:02:10.730Z,34.95
2022-08-19T11:05:13.781Z,35.09
2022-08-19T11:08:23.503Z,34.01
2022-08-19T11:11:26.739Z,34.50
2022-08-19T11:14:34.075Z,34.51
2022-08-19T11:17:37.388Z,33.85
2022-08-19T11:20:40.333Z,33.97
2022-08-19T11:23:43.173Z,33.90
2022-08-19T11:26:46.510Z,33.92
2022-08-19T11:29:50.758Z,33.83
2022-08-19T11:32:53.548Z,33.86
2022-08-19T11:35:56.400Z,33.47
2022-08-19T11:38:59.261Z,34.02
2022-08-19T11:42:03.867Z,33.03
2022-08-19T11:45:08.785Z,33.35
2022-08-19T11:48:11.888Z,33.70
2022-08-19T11:51:19.491Z,32.00
2022-08-19T11:54:22.299Z,32.49
2022-08-19T11:57:25.138Z,32.45
2022-08-19T12:00:30.336Z,32.01
2022-08-19T12:03:33.257Z,31.58
2022-08-19T12:06:36.082Z,33.05
2022-08-19T12:09:42.793Z,33.33
2022-08-19T12:12:47.371Z,33.16
2022-08-19T12:15:59.344Z,31.93
2022-08-19T12:19:05.169Z,32.12
2022-08-19T12:22:08.723Z,32.87
2022-08-19T12:25:12.589Z,33.05
2022-08-19T12:28:16.103Z,32.60
2022-08-19T12:31:20.727Z,32.84
2022-08-19T12:34:23.559Z,33.33
2022-08-19T12:37:26.492Z,31.66
2022-08-19T12:40:29.479Z,30.96
2022-08-19T12:43:32.416Z,30.37
2022-08-19T12:46:36.626Z,30.19
2022-08-19T12:49:54.063Z,31.17
2022-08-19T12:52:58.376Z,30.30
2022-08-19T12:56:01.504Z,29.59
2022-08-19T12:59:05.308Z,29.97
2022-08-19T13:02:10.120Z,29.77
2022-08-19T13:05:14.089Z,29.33
2022-08-19T13:08:16.936Z,30.37
2022-08-19T13:11:21.285Z,30.97
2022-08-19T13:14:24.134Z,31.08
2022-08-19T13:17:28.389Z,30.33
2022-08-19T13:20:31.661Z,31.72
2022-08-19T13:23:34.687Z,31.80
2022-08-19T13:26:37.780Z,32.02
2022-08-19T13:29:59.491Z,31.65
2022-08-19T13:33:12.735Z,32.19
2022-08-19T13:39:38.185Z,32.17
2022-08-19T13:42:40.996Z,31.97
2022-08-19T13:45:43.803Z,32.18
2022-08-19T13:48:47.996Z,32.18
2022-08-19T13:51:54.071Z,32.11
2022-08-19T13:54:57.592Z,32.18
2022-08-19T13:58:01.195Z,32.09
2022-08-19T14:01:04.135Z,31.37
2022-08-19T14:04:08.363Z,30.87
2022-08-19T14:07:11.649Z,30.48
2022-08-19T14:10:15.012Z,30.27
2022-08-19T14:13:22.291Z,29.78
2022-08-19T14:16:25.751Z,30.61
2022-08-19T14:19:30.109Z,31.22
2022-08-19T14:22:33.004Z,31.75
2022-08-19T14:25:36.091Z,30.89
2022-08-19T14:28:39.139Z,31.38
2022-08-19T14:31:42.026Z,31.31
2022-08-19T14:34:47.031Z,31.02
2022-08-19T14:37:54.956Z,31.11
2022-08-19T14:41:12.749Z,30.97
2022-08-19T14:44:18.166Z,30.57
2022-08-19T14:47:20.981Z,30.57
2022-08-19T14:50:27.268Z,30.26
2022-08-19T14:53:30.059Z,29.99
2022-08-19T14:56:33.648Z,29.12
2022-08-19T14:59:36.627Z,29.61
2022-08-19T15:02:39.501Z,28.88
2022-08-19T15:05:46.354Z,29.33
2022-08-19T15:08:49.249Z,28.97
2022-08-19T15:11:52.142Z,29.29
2022-08-19T15:14:56.381Z,28.62
2022-08-19T15:18:03.550Z,28.81
2022-08-19T15:21:08.284Z,29.12
2022-08-19T15:24:12.056Z,28.08
2022-08-19T15:27:15.386Z,28.13
2022-08-19T15:30:22.018Z,28.34
2022-08-19T15:33:25.271Z,28.92
2022-08-19T15:36:29.779Z,28.76
2022-08-19T15:39:32.841Z,28.26
2022-08-19T15:42:37.605Z,27.65
2022-08-19T15:45:45.236Z,28.02
2022-08-19T15:48:57.200Z,27.83
2022-08-19T15:52:07.768Z,28.15
2022-08-19T15:55:10.698Z,28.15
2022-08-19T15:58:50.905Z,28.03
2022-08-19T16:02:13.139Z,28.10
2022-08-19T16:05:34.920Z,28.03
2022-08-19T16:08:48.882Z,27.71
2022-08-19T16:11:56.919Z,28.00
2022-08-19T16:15:00.121Z,28.24
2022-08-19T16:18:04.217Z,27.02
2022-08-19T16:21:08.142Z,27.00
2022-08-19T16:24:13.813Z,27.06
2022-08-19T16:27:16.691Z,27.21
2022-08-19T16:30:19.765Z,26.87
2022-08-19T16:33:23.169Z,26.43
2022-08-19T16:36:26.741Z,26.49
2022-08-19T16:39:32.616Z,26.93
2022-08-19T16:42:36.392Z,26.40
2022-08-19T16:45:40.171Z,26.93
2022-08-19T16:48:46.947Z,26.52
2022-08-19T16:51:50.554Z,26.07
2022-08-19T16:54:55.078Z,26.98
2022-08-19T16:57:58.289Z,26.16
2022-08-19T17:01:04.272Z,26.50
2022-08-19T17:04:07.416Z,26.01
2022-08-19T17:07:10.525Z,26.73
2022-08-19T17:10:15.036Z,26.33
2022-08-19T17:13:18.088Z,26.58
2022-08-19T17:16:22.415Z,26.38
2022-08-19T17:19:25.406Z,26.68
2022-08-19T17:22:28.317Z,26.50
2022-08-19T17:25:33.353Z,26.90
2022-08-19T17:28:36.331Z,26.24
2022-08-19T17:31:39.370Z,26.22
2022-08-19T17:34:54.479Z,26.22
2022-08-19T17:37:58.761Z,26.55
2022-08-19T17:41:05.986Z,26.26
2022-08-19T17:44:09.806Z,26.21
2022-08-19T17:47:15.741Z,26.28
2022-08-19T17:50:20.241Z,26.45
2022-08-19T17:53:24.813Z,26.59
2022-08-19T17:56:29.924Z,26.38
2022-08-19T17:59:33.048Z,26.38
2022-08-19T18:02:36.908Z,26.31
2022-08-19T18:05:42.657Z,26.48
2022-08-19T18:08:49.293Z,26.14
2022-08-19T18:11:56.913Z,25.84
2022-08-19T18:15:04.396Z,26.03
2022-08-19T18:18:12.764Z,25.66
2022-08-19T18:21:19.773Z,25.55
2022-08-19T18:24:22.813Z,25.54
2022-08-19T18:27:29.356Z,25.47
2022-08-19T18:30:42.317Z,26.29
2022-08-19T18:33:45.692Z,26.47
2022-08-19T18:36:53.773Z,26.44
2022-08-19T18:40:14.633Z,26.34
2022-08-19T18:43:37.771Z,26.12
2022-08-19T18:46:59.772Z,26.27
2022-08-19T18:50:09.184Z,26.26
2022-08-19T18:53:15.089Z,25.95
2022-08-19T18:56:24.212Z,26.24
2022-08-19T18:59:29.785Z,25.97
2022-08-19T19:02:38.592Z,25.68
2022-08-19T19:05:41.964Z,25.72
2022-08-19T19:08:45.514Z,26.08
2022-08-19T19:11:52.539Z,25.81
2022-08-19T19:14:58.165Z,25.23
2022-08-19T19:18:01.052Z,25.86
2022-08-19T19:21:05.013Z,25.87
2022-08-19T19:24:09.099Z,25.66
2022-08-19T19:27:13.153Z,25.43
2022-08-19T19:30:17.997Z,25.72
2022-08-19T19:33:22.224Z,25.74
2022-08-19T19:36:25.402Z,25.56
2022-08-19T19:39:45.202Z,25.68
2022-08-19T19:42:50.835Z,25.46
2022-08-19T19:45:57.523Z,25.27
2022-08-19T19:49:01.180Z,25.41
2022-08-19T19:52:04.377Z,25.25
2022-08-19T19:55:09.350Z,24.79
2022-08-19T19:58:13.227Z,24.81
2022-08-19T20:01:21.773Z,25.20
2022-08-19T20:04:28.320Z,25.10
2022-08-19T20:07:45.044Z,24.84
2022-08-19T20:10:50.472Z,25.02
2022-08-19T20:13:53.398Z,24.75
2022-08-19T20:16:57.834Z,24.67
2022-08-19T20:20:00.797Z,24.66
2022-08-19T20:23:04.085Z,24.47
2022-08-19T20:26:08.460Z,25.06
2022-08-19T20:29:38.165Z,24.81
2022-08-19T20:32:42.765Z,24.52
2022-08-19T20:35:46.382Z,24.39
2022-08-19T20:38:49.273Z,23.84
2022-08-19T20:41:52.755Z,24.84
2022-08-19T20:44:55.612Z,24.03
2022-08-19T20:47:59.886Z,23.75
2022-08-19T20:51:03.000Z,23.61
2022-08-19T20:54:06.036Z,24.47
2022-08-19T20:57:09.068Z,24.10
2022-08-19T21:00:12.953Z,24.31
2022-08-19T21:03:20.134Z,23.54
2022-08-19T21:06:23.916Z,23.53
2022-08-19T21:09:26.812Z,23.13
2022-08-19T21:12:29.757Z,22.25
2022-08-19T21:15:32.707Z,23.53
2022-08-19T21:18:36.967Z,23.28
2022-08-19T21:21:42.662Z,22.43
2022-08-19T21:24:45.528Z,22.56
2022-08-19T21:27:48.295Z,22.77
2022-08-19T21:30:51.656Z,22.76
2022-08-19T21:33:55.929Z,21.90
2022-08-19T21:36:58.724Z,21.63
2022-08-19T21:40:01.911Z,21.65
2022-08-19T21:43:06.627Z,22.70
2022-08-19T21:46:09.834Z,22.95
2022-08-19T21:49:14.564Z,21.89
2022-08-19T21:52:21.737Z,22.95
2022-08-19T21:55:24.780Z,22.51
2022-08-19T21:58:30.166Z,22.69
2022-08-19T22:01:33.647Z,21.88
2022-08-19T22:04:39.815Z,21.86
2022-08-19T22:07:43.871Z,21.70
2022-08-19T22:10:49.875Z,21.51
2022-08-19T22:13:53.960Z,21.88
2022-08-19T22:16:57.453Z,22.13
2022-08-19T22:20:01.666Z,21.46
2022-08-19T22:23:06.783Z,21.65
2022-08-19T22:26:09.876Z,21.21
2022-08-19T22:29:15.759Z,21.07
2022-08-19T22:32:28.150Z,21.05
2022-08-19T22:35:34.575Z,20.96
2022-08-19T22:38:38.446Z,20.96
2022-08-19T22:41:41.366Z,21.23
2022-08-19T22:44:44.172Z,21.21
2022-08-19T22:47:46.990Z,21.03
2022-08-19T22:51:05.414Z,20.97
2022-08-19T22:54:11.136Z,21.05
2022-08-19T22:57:15.503Z,21.06
2022-08-19T23:00:18.287Z,21.33
2022-08-19T23:03:21.070Z,20.92
2022-08-19T23:06:33.726Z,21.59
2022-08-19T23:09:36.907Z,21.75
2022-08-19T23:12:43.730Z,21.54
2022-08-19T23:15:47.326Z,21.60
2022-08-19T23:18:51.203Z,21.73
2022-08-19T23:22:00.752Z,22.64
2022-08-19T23:25:03.841Z,22.89
2022-08-19T23:28:24.594Z,22.21
2022-08-19T23:31:27.444Z,22.02
2022-08-19T23:34:30.356Z,22.15
2022-08-19T23:37:37.295Z,21.61
2022-08-19T23:40:40.258Z,21.70
2022-08-19T23:43:43.510Z,22.04
2022-08-19T23:46:54.580Z,21.25
2022-08-19T23:49:59.154Z,22.33
2022-08-19T23:53:03.659Z,21.77
2022-08-19T23:56:07.330Z,21.33
2022-08-19T23:59:10.107Z,22.10
